Time;durP1;ratioP1;P1;durP2;ratioP2;P2;SDS_P1;SDS_P2;PMS_P1;PMS_P2;Temp;Humidity;BMP_temperature;BMP_pressure;BME280_temperature;BME280_humidity;BME280_pressure;Samples;Min_cycle;Max_cycle;Signal;HPM_P1;HPM_P2
2021/10/12 00:00:40;;;;;;;1999.90;999.90;;;;;;;11.01;77.81;101417.00;15613679;28;20058;-60
2021/10/12 00:08:15;;;;;;;1999.90;999.90;;;;;;;10.78;79.30;101417.03;15612974;28;20144;-62
2021/10/12 00:15:47;;;;;;;1999.90;999.90;;;;;;;10.77;78.91;101403.41;15619434;28;20045;-62
2021/10/12 00:23:21;;;;;;;1999.90;999.90;;;;;;;10.79;78.55;101404.72;15631874;28;20042;-61
2021/10/12 00:30:53;;;;;;;1999.90;999.90;;;;;;;10.54;79.89;101394.19;15610541;28;20052;-59
2021/10/12 00:38:27;;;;;;;1999.90;999.90;;;;;;;10.90;78.12;101391.31;15611477;28;20435;-62
2021/10/12 00:46:05;;;;;;;1999.90;999.90;;;;;;;10.60;79.36;101387.34;15611072;28;20399;-62
2021/10/12 00:53:38;;;;;;;1999.90;999.90;;;;;;;10.64;79.50;101380.81;15640777;28;20076;-62
2021/10/12 01:01:13;;;;;;;1999.90;999.90;;;;;;;10.67;78.65;101371.81;15612159;28;20049;-60
2021/10/12 01:08:46;;;;;;;1999.90;999.90;;;;;;;10.72;78.10;101356.06;15611525;28;20049;-61
2021/10/12 01:16:19;;;;;;;1999.90;999.90;;;;;;;10.50;78.70;101356.88;15593232;28;20136;-60
2021/10/12 01:23:53;;;;;;;1999.90;999.90;;;;;;;10.48;78.39;101326.50;15592805;28;20081;-61
2021/10/12 01:31:27;;;;;;;1999.90;999.90;;;;;;;10.31;79.44;101337.53;15609857;28;20064;-60
2021/10/12 01:39:00;;;;;;;1999.90;999.90;;;;;;;10.50;78.53;101337.34;15608115;28;20508;-60
2021/10/12 01:46:33;;;;;;;1999.90;999.90;;;;;;;10.36;78.84;101326.28;15602883;28;20049;-61
2021/10/12 01:54:16;;;;;;;1999.90;999.90;;;;;;;10.30;80.02;101308.00;15635975;28;20038;-61
2021/10/12 02:01:49;;;;;;;1999.90;999.90;;;;;;;10.13;80.36;101308.66;15610257;28;20048;-58
2021/10/12 02:09:23;;;;;;;1999.90;999.90;;;;;;;10.35;79.28;101293.94;15618915;28;20049;-60
2021/10/12 02:16:55;;;;;;;;;;;;;;;10.25;79.66;101277.47;15619166;28;20433;-62
2021/10/12 02:24:29;;;;;;;1999.90;999.90;;;;;;;10.24;79.90;101275.81;15618212;28;20020;-60
2021/10/12 02:32:01;;;;;;;1999.90;999.90;;;;;;;10.10;79.81;101256.31;15618337;28;20405;-59
2021/10/12 02:39:35;;;;;;;1999.90;999.90;;;;;;;10.19;79.69;101250.78;15618028;28;20057;-58
2021/10/12 02:47:08;;;;;;;1999.90;999.90;;;;;;;10.23;79.25;101240.69;15617159;28;20046;-61
2021/10/12 02:54:41;;;;;;;1999.90;999.90;;;;;;;10.16;78.54;101232.72;15628377;28;20551;-61
2021/10/12 03:02:14;;;;;;;1999.90;999.90;;;;;;;10.18;78.86;101243.56;15613548;28;20056;-59
2021/10/12 03:09:48;;;;;;;1999.90;999.90;;;;;;;10.05;79.06;101242.50;15611633;28;20136;-60
2021/10/12 03:17:20;;;;;;;1999.90;999.90;;;;;;;10.14;77.92;101229.44;15575765;28;20120;-61
2021/10/12 03:24:54;;;;;;;1999.90;999.90;;;;;;;10.12;77.48;101237.31;15611089;28;20051;-62
2021/10/12 03:32:27;;;;;;;1999.90;999.90;;;;;;;9.94;78.31;101205.69;15612037;28;20053;-59
2021/10/12 03:40:01;;;;;;;1999.90;999.90;;;;;;;10.08;77.69;101203.63;15609054;28;20524;-59
2021/10/12 03:47:33;;;;;;;1999.90;999.90;;;;;;;10.11;78.13;101191.06;15612082;28;20095;-60
2021/10/12 03:55:08;;;;;;;1999.90;999.90;;;;;;;10.13;78.21;101174.81;15589022;28;998668;-61
2021/10/12 04:02:41;;;;;;;1999.90;999.90;;;;;;;10.22;78.46;101172.13;15612053;28;20033;-58
2021/10/12 04:10:14;;;;;;;1999.90;999.90;;;;;;;10.25;78.71;101158.34;15612026;28;20132;-60
2021/10/12 04:17:48;;;;;;;1999.90;999.90;;;;;;;10.21;79.69;101154.50;15611835;28;20073;-60
2021/10/12 04:25:22;;;;;;;1999.90;999.90;;;;;;;10.17;80.60;101158.25;15611524;28;20042;-60
2021/10/12 04:32:55;;;;;;;1999.90;999.90;;;;;;;10.36;81.30;101151.34;15610165;28;20038;-61
2021/10/12 04:40:32;;;;;;;1999.90;999.90;;;;;;;10.21;83.22;101118.25;15611997;28;20065;-61
2021/10/12 04:48:05;;;;;;;1999.90;999.90;;;;;;;10.34;83.05;101122.94;15612024;28;20045;-63
2021/10/12 04:55:40;;;;;;;1999.90;999.90;;;;;;;10.44;82.54;101118.22;15612487;28;20049;-60
2021/10/12 05:03:13;;;;;;;1999.90;999.90;;;;;;;10.67;81.54;101101.06;15611275;28;20049;-59
2021/10/12 05:10:46;;;;;;;1999.90;999.90;;;;;;;10.80;81.70;101064.97;15608169;28;20073;-60
2021/10/12 05:18:21;;;;;;;1999.90;999.90;;;;;;;10.86;81.13;101050.53;15595854;28;20057;-60
2021/10/12 05:25:55;;;;;;;1999.90;999.90;;;;;;;10.71;81.99;101048.19;15579158;28;20055;-60
2021/10/12 05:33:27;;;;;;;1999.90;999.90;;;;;;;10.73;81.57;101036.69;15608783;28;20544;-58
2021/10/12 05:41:01;;;;;;;1999.90;999.90;;;;;;;10.84;81.65;101032.47;15615788;28;20057;-59
2021/10/12 05:48:34;;;;;;;1999.90;999.90;;;;;;;10.69;81.59;101025.38;15620465;28;20418;-59
2021/10/12 05:56:10;;;;;;;1999.90;999.90;;;;;;;10.83;81.74;101023.25;15679382;28;20103;-58
2021/10/12 06:03:43;;;;;;;1999.90;999.90;;;;;;;10.76;81.71;101024.91;15682860;28;20125;-57
2021/10/12 06:11:17;;;;;;;1999.90;999.90;;;;;;;10.87;81.93;101020.63;15682760;28;20067;-60
2021/10/12 06:18:49;;;;;;;1999.90;999.90;;;;;;;10.60;82.82;101028.16;15681450;28;20071;-59
2021/10/12 06:26:23;;;;;;;1999.90;999.90;;;;;;;10.69;83.24;101034.56;15681277;28;20049;-60
2021/10/12 06:33:56;;;;;;;1999.90;999.90;;;;;;;10.83;82.91;101026.03;15680183;28;20132;-60
2021/10/12 06:41:29;;;;;;;1999.90;999.90;;;;;;;10.95;82.24;101025.41;15678788;28;20044;-60
2021/10/12 06:49:02;;;;;;;1999.90;999.90;;;;;;;10.95;81.93;101023.44;15677672;28;20163;-60
2021/10/12 06:56:36;;;;;;;1999.90;999.90;;;;;;;11.25;81.12;101037.53;15615948;28;20474;-60
2021/10/12 07:04:08;;;;;;;1999.90;999.90;;;;;;;11.33;80.41;101031.13;15615849;28;20124;-59
2021/10/12 07:11:42;;;;;;;1999.90;999.90;;;;;;;10.92;81.52;101040.81;15618409;28;20061;-58
2021/10/12 07:19:15;;;;;;;1999.90;999.90;;;;;;;11.35;80.24;101042.78;15618320;28;20053;-57
2021/10/12 07:26:49;;;;;;;1999.90;999.90;;;;;;;11.63;79.92;101043.25;15617301;28;20513;-60
2021/10/12 07:34:21;;;;;;;1999.90;999.90;;;;;;;11.79;78.51;101047.19;15613919;28;20128;-59
2021/10/12 07:41:55;;;;;;;1999.90;999.90;;;;;;;11.76;79.00;101041.41;15614293;28;20453;-58
2021/10/12 07:49:28;;;;;;;1999.90;999.90;;;;;;;12.03;77.56;101034.59;15625119;22;20047;-82
2021/10/12 07:57:02;;;;;;;1999.90;999.90;;;;;;;12.47;76.52;101026.81;15649658;28;20666;-82
2021/10/12 08:04:34;;;;;;;1999.90;999.90;;;;;;;12.75;74.32;101035.53;15619822;22;20045;-63
2021/10/12 08:12:09;;;;;;;1999.90;999.90;;;;;;;12.86;74.36;101031.16;15596264;28;20103;-63
2021/10/12 08:19:41;;;;;;;1999.90;999.90;;;;;;;12.38;73.73;101026.84;15668290;22;20072;-63
2021/10/12 08:27:15;;;;;;;1999.90;999.90;;;;;;;12.69;74.03;101027.31;15681042;28;20124;-63
2021/10/12 08:34:48;;;;;;;1999.90;999.90;;;;;;;12.87;73.61;101028.03;15679993;28;20123;-63
2021/10/12 08:42:27;;;;;;;1999.90;999.90;;;;;;;13.27;71.72;101016.34;15680436;28;20048;-64
2021/10/12 08:50:02;;;;;;;1999.90;999.90;;;;;;;13.37;72.10;101009.50;15661553;28;20131;-63
2021/10/12 08:57:37;;;;;;;1999.90;999.90;;;;;;;14.26;68.50;101007.78;15662535;28;20301;-65
2021/10/12 09:05:16;;;;;;;1999.90;999.90;;;;;;;13.93;68.54;100996.66;15661346;28;20096;-65
2021/10/12 09:12:53;;;;;;;1999.90;999.90;;;;;;;14.53;67.23;100985.81;15677979;28;20044;-64
2021/10/12 09:20:31;;;;;;;1999.90;999.90;;;;;;;14.38;67.54;100982.53;15677437;28;20079;-64
2021/10/12 09:28:05;;;;;;;1999.90;999.90;;;;;;;14.14;69.90;100991.75;15643703;28;20073;-64
2021/10/12 09:35:38;;;;;;;1999.90;999.90;;;;;;;14.15;68.90;100979.38;15677906;28;20037;-65
2021/10/12 09:43:16;;;;;;;1999.90;999.90;;;;;;;14.62;68.02;100975.28;15677853;28;20517;-65
2021/10/12 09:50:49;;;;;;;1999.90;999.90;;;;;;;16.35;63.49;100960.69;15676976;28;20052;-65
2021/10/12 09:58:28;;;;;;;1999.90;999.90;;;;;;;17.60;57.70;100952.88;15675657;28;20127;-65
2021/10/12 10:06:05;;;;;;;1999.90;999.90;;;;;;;18.01;56.31;100959.69;15677568;28;20128;-65
2021/10/12 10:13:39;;;;;;;1999.90;999.90;;;;;;;17.86;55.78;100957.84;15657918;28;20048;-64
2021/10/12 10:21:12;;;;;;;1999.90;999.90;;;;;;;16.98;56.09;100957.72;15676997;28;20059;-65
2021/10/12 10:28:46;;;;;;;1999.90;999.90;;;;;;;17.78;55.84;100948.41;15651706;28;20386;-62
2021/10/12 10:36:27;;;;;;;1999.90;999.90;;;;;;;19.09;48.04;100942.31;15652468;28;20041;-64
2021/10/12 10:44:02;;;;;;;1999.90;999.90;;;;;;;19.57;47.26;100935.59;15688108;28;20047;-62
2021/10/12 10:51:55;;;;;;;1999.90;999.90;;;;;;;20.44;45.22;100935.13;15670004;28;20127;-63
2021/10/12 10:59:30;;;;;;;1999.90;999.90;;;;;;;20.02;43.08;100924.28;15687224;28;20120;-63
2021/10/12 11:07:03;;;;;;;1999.90;999.90;;;;;;;21.12;42.77;100916.41;15667670;28;20037;-64
2021/10/12 11:14:37;;;;;;;1999.90;999.90;;;;;;;20.81;41.81;100917.09;15667154;28;20049;-63
2021/10/12 11:22:09;;;;;;;1999.90;999.90;;;;;;;19.73;42.74;100914.72;15684153;28;20114;-63
2021/10/12 11:29:43;;;;;;;1999.90;999.90;;;;;;;19.04;45.19;100901.03;15683662;28;20506;-64
2021/10/12 11:37:15;;;;;;;1999.90;999.90;;;;;;;21.93;40.05;100897.09;15664244;28;20521;-62
2021/10/12 11:44:52;;;;;;;1999.90;999.90;;;;;;;22.07;38.26;100886.53;15648695;28;20049;-63
2021/10/12 11:52:31;;;;;;;1999.90;999.90;;;;;;;23.12;36.14;100885.00;15647878;28;20136;-65
2021/10/12 12:00:06;;;;;;;1999.90;999.90;;;;;;;24.27;33.30;100892.28;15681572;28;20048;-64
2021/10/12 12:07:48;;;;;;;1999.90;999.90;;;;;;;21.23;38.79;100885.22;15681286;28;20444;-64
2021/10/12 12:15:24;;;;;;;1999.90;999.90;;;;;;;18.03;45.89;100883.91;15679231;28;20096;-64
2021/10/12 12:22:56;;;;;;;1999.90;999.90;;;;;;;19.74;41.11;100879.53;15681257;28;20079;-62
2021/10/12 12:30:34;;;;;;;1999.90;999.90;;;;;;;25.56;32.39;100877.22;15665586;28;20048;-63
2021/10/12 12:38:07;;;;;;;1999.90;999.90;;;;;;;26.72;29.57;100876.38;15713151;28;20487;-62
2021/10/12 12:45:41;;;;;;;1999.90;999.90;;;;;;;25.15;30.94;100877.44;15683184;28;20049;-62
2021/10/12 12:53:41;;;;;;;1999.90;999.90;;;;;;;24.57;31.30;100883.03;15684612;28;20445;-63
2021/10/12 13:01:16;;;;;;;1999.90;999.90;;;;;;;21.15;35.79;100884.38;15667669;28;20571;-63
2021/10/12 13:08:54;;;;;;;1999.90;999.90;;;;;;;19.03;38.47;100888.09;15689644;28;20578;-63
2021/10/12 13:16:28;;;;;;;1999.90;999.90;;;;;;;17.27;42.02;100874.50;15693220;28;20041;-62
2021/10/12 13:24:01;;;;;;;1999.90;999.90;;;;;;;17.28;43.16;100882.59;15681890;28;20045;-62
2021/10/12 13:31:38;;;;;;;1999.90;999.90;;;;;;;16.72;43.38;100874.66;15652203;28;20071;-63
2021/10/12 13:39:10;;;;;;;1999.90;999.90;;;;;;;16.21;44.87;100888.00;15682313;28;20091;-64
2021/10/12 13:46:44;;;;;;;1999.90;999.90;;;;;;;15.36;48.89;100888.66;15671673;28;20049;-64
2021/10/12 13:54:19;;;;;;;1999.90;999.90;;;;;;;15.64;47.41;100881.00;15627960;28;20053;-63
2021/10/12 14:01:53;;;;;;;1999.90;999.90;;;;;;;15.97;46.23;100886.22;15667805;28;20064;-63
2021/10/12 14:09:26;;;;;;;1999.90;999.90;;;;;;;15.86;43.56;100885.16;15705043;28;20173;-63
2021/10/12 14:17:00;;;;;;;1999.90;999.90;;;;;;;15.72;44.56;100877.16;15745891;22;20136;-61
2021/10/12 14:24:32;;;;;;;1999.90;999.90;;;;;;;15.55;45.41;100885.97;15681154;28;20094;-60
2021/10/12 14:32:09;;;;;;;1999.90;999.90;;;;;;;15.75;45.07;100882.09;15681770;28;20091;-59
2021/10/12 14:39:42;;;;;;;1999.90;999.90;;;;;;;15.09;48.08;100893.97;15662717;28;20053;-58
2021/10/12 14:47:16;;;;;;;1999.90;999.90;;;;;;;15.30;47.13;100888.91;15704126;28;20068;-60
2021/10/12 14:54:48;;;;;;;1999.90;999.90;;;;;;;15.28;47.30;100887.66;15680587;28;20045;-60
2021/10/12 15:02:22;;;;;;;1999.90;999.90;;;;;;;15.16;48.10;100887.72;15676789;28;20136;-60
2021/10/12 15:09:55;;;;;;;1999.90;999.90;;;;;;;15.30;47.61;100896.53;15652484;28;20065;-60
2021/10/12 15:17:28;;;;;;;1999.90;999.90;;;;;;;14.84;47.35;100887.66;15677394;28;20053;-59
2021/10/12 15:25:01;;;;;;;1999.90;999.90;;;;;;;14.70;49.37;100892.88;15655271;28;20182;-59
2021/10/12 15:32:37;;;;;;;1999.90;999.90;;;;;;;13.93;49.21;100918.09;15662246;28;20525;-61
2021/10/12 15:40:09;;;;;;;1999.90;999.90;;;;;;;13.48;50.26;100921.00;15656975;28;20045;-59
2021/10/12 15:47:44;;;;;;;1999.90;999.90;;;;;;;13.43;50.07;100921.22;15673800;28;20144;-61
2021/10/12 15:55:17;;;;;;;1999.90;999.90;;;;;;;13.10;49.17;100930.44;15670687;28;20052;-59
2021/10/12 16:02:51;;;;;;;;;;;;;;;12.93;48.98;100939.03;15676294;28;20045;-61
2021/10/12 16:10:24;;;;;;;;;;;;;;;12.73;47.90;100940.69;15675138;28;20023;-61
2021/10/12 16:25:48;;;;;;;1999.90;999.90;;;;;;;12.45;49.09;100965.59;15639615;28;20041;-61
2021/10/12 16:33:21;;;;;;;1999.90;999.90;;;;;;;12.17;49.96;100975.63;15662229;28;20414;-61
2021/10/12 16:40:54;;;;;;;1999.90;999.90;;;;;;;12.13;49.87;100984.69;15635028;28;20160;-61
2021/10/12 16:48:28;;;;;;;1999.90;999.90;;;;;;;11.95;51.92;100988.72;15669956;28;20354;-61
2021/10/12 16:56:00;;;;;;;1999.90;999.90;;;;;;;11.79;52.06;101001.63;15638634;28;20072;-61
2021/10/12 17:03:34;;;;;;;1999.90;999.90;;;;;;;11.83;52.62;101005.41;15640271;28;20567;-61
2021/10/12 17:11:06;;;;;;;1999.90;999.90;;;;;;;11.46;54.25;101005.00;15661798;28;20037;-61
2021/10/12 17:18:42;;;;;;;1999.90;999.90;;;;;;;11.50;54.64;101017.13;15664022;28;20061;-60
2021/10/12 17:26:15;;;;;;;1999.90;999.90;;;;;;;11.22;55.91;101027.03;15661202;28;20049;-61
2021/10/12 17:33:50;;;;;;;1999.90;999.90;;;;;;;11.03;56.56;101020.97;15654599;28;20052;-61
2021/10/12 17:41:31;;;;;;;1999.90;999.90;;;;;;;10.95;55.78;101039.38;15683685;28;20056;-62
2021/10/12 17:49:09;;;;;;;1999.90;999.90;;;;;;;10.87;56.02;101057.75;15657702;28;20493;-61
2021/10/12 17:56:50;;;;;;;1999.90;999.90;;;;;;;10.57;57.52;101051.13;15676470;28;20485;-61
2021/10/12 18:04:28;;;;;;;1999.90;999.90;;;;;;;10.43;58.67;101066.38;15679394;28;20057;-61
2021/10/12 18:12:03;;;;;;;1999.90;999.90;;;;;;;10.36;58.43;101067.66;15678560;28;20043;-61
2021/10/12 18:19:38;;;;;;;1999.90;999.90;;;;;;;10.24;59.51;101081.41;15659413;28;20211;-61
2021/10/12 18:27:11;;;;;;;1999.90;999.90;;;;;;;10.27;59.70;101085.50;15662510;28;20424;-61
2021/10/12 18:34:47;;;;;;;1999.90;999.90;;;;;;;10.16;59.67;101093.28;15673699;28;20548;-61
2021/10/12 18:42:21;;;;;;;1999.90;999.90;;;;;;;10.08;59.42;101088.50;15662625;28;20412;-61
2021/10/12 18:49:55;;;;;;;1999.90;999.90;;;;;;;10.08;60.49;101103.25;15672213;28;20040;-61
2021/10/12 18:57:29;;;;;;;1999.90;999.90;;;;;;;10.07;60.14;101109.97;15671927;28;20172;-60
2021/10/12 19:05:03;;;;;;;1999.90;999.90;;;;;;;10.11;60.57;101124.94;15677517;28;20041;-64
2021/10/12 19:12:36;;;;;;;1999.90;999.90;;;;;;;10.10;59.85;101123.28;15662635;28;20064;-61
2021/10/12 19:20:11;;;;;;;1999.90;999.90;;;;;;;10.12;60.45;101132.16;15671138;28;20045;-60
2021/10/12 19:27:43;;;;;;;1999.90;999.90;;;;;;;9.84;61.16;101141.81;15667389;28;20424;-61
2021/10/12 19:35:17;;;;;;;1999.90;999.90;;;;;;;9.78;61.04;101148.66;15672100;28;20087;-61
2021/10/12 19:42:50;;;;;;;1999.90;999.90;;;;;;;9.79;61.63;101144.72;15662798;28;20103;-61
2021/10/12 19:50:24;;;;;;;1999.90;999.90;;;;;;;9.71;62.25;101153.88;15657797;28;20045;-62
2021/10/12 19:57:57;;;;;;;1999.90;999.90;;;;;;;9.57;63.47;101153.91;15666315;28;20036;-60
2021/10/12 20:05:31;;;;;;;1999.90;999.90;;;;;;;9.70;63.14;101172.56;15684856;28;20037;-61
2021/10/12 20:13:05;;;;;;;1999.90;999.90;;;;;;;9.57;63.36;101175.38;15672646;28;20049;-62
2021/10/12 20:20:38;;;;;;;1999.90;999.90;;;;;;;9.33;64.45;101170.09;15655986;28;20487;-61
2021/10/12 20:28:11;;;;;;;1999.90;999.90;;;;;;;9.17;64.39;101172.38;15674970;28;20516;-61
2021/10/12 20:35:45;;;;;;;1999.90;999.90;;;;;;;9.10;65.08;101172.84;15668213;28;20057;-61
2021/10/12 20:43:19;;;;;;;1999.90;999.90;;;;;;;8.97;65.23;101187.59;15655007;28;20045;-60
2021/10/12 20:50:53;;;;;;;1999.90;999.90;;;;;;;8.72;65.89;101200.06;15673521;28;20137;-61
2021/10/12 20:58:26;;;;;;;1999.90;999.90;;;;;;;8.51;67.11;101199.63;15672603;28;20505;-61
2021/10/12 21:06:00;;;;;;;1999.90;999.90;;;;;;;8.60;66.74;101199.75;15645755;28;20314;-61
2021/10/12 21:13:32;;;;;;;1999.90;999.90;;;;;;;8.55;66.07;101200.69;15635023;28;20055;-61
2021/10/12 21:21:08;;;;;;;1999.90;999.90;;;;;;;8.54;66.59;101199.00;15673458;28;20049;-60
2021/10/12 21:28:41;;;;;;;1999.90;999.90;;;;;;;8.44;66.29;101206.72;15672383;28;20057;-61
2021/10/12 21:36:15;;;;;;;1999.90;999.90;;;;;;;8.38;66.91;101215.19;15672238;28;20047;-61
2021/10/12 21:43:48;;;;;;;1999.90;999.90;;;;;;;8.22;67.00;101219.31;15669914;28;20107;-59
2021/10/12 21:51:22;;;;;;;1999.90;999.90;;;;;;;8.15;67.63;101215.31;15671708;28;20045;-60
2021/10/12 21:58:55;;;;;;;1999.90;999.90;;;;;;;7.89;67.56;101220.47;15670717;28;20489;-60
2021/10/12 22:06:29;;;;;;;1999.90;999.90;;;;;;;7.89;67.96;101218.50;15671254;28;20115;-61
2021/10/12 22:14:01;;;;;;;1999.90;999.90;;;;;;;8.13;68.02;101225.88;15643519;28;20111;-61
2021/10/12 22:21:36;;;;;;;1999.90;999.90;;;;;;;8.29;67.62;101230.06;15676751;28;20047;-59
2021/10/12 22:29:10;;;;;;;1999.90;999.90;;;;;;;8.37;66.86;101229.41;15679843;28;20052;-61
2021/10/12 22:36:44;;;;;;;1999.90;999.90;;;;;;;8.27;66.92;101232.31;15678713;28;20468;-61
2021/10/12 22:44:17;;;;;;;1999.90;999.90;;;;;;;8.06;67.73;101231.84;15680123;28;20044;-61
2021/10/12 22:51:51;;;;;;;1999.90;999.90;;;;;;;8.01;67.36;101235.53;15678355;28;20095;-61
2021/10/12 22:59:23;;;;;;;1999.90;999.90;;;;;;;7.93;67.55;101240.97;15678798;28;20072;-61
2021/10/12 23:06:57;;;;;;;1999.90;999.90;;;;;;;7.81;68.34;101244.19;15678346;28;20107;-61
2021/10/12 23:14:33;;;;;;;1999.90;999.90;;;;;;;7.65;69.19;101248.34;15655275;28;20421;-61
2021/10/12 23:22:07;;;;;;;1999.90;999.90;;;;;;;7.72;68.79;101259.91;15653767;28;20065;-60
2021/10/12 23:29:40;;;;;;;1999.90;999.90;;;;;;;7.63;68.23;101247.81;15666625;28;20447;-61
2021/10/12 23:37:14;;;;;;;1999.90;999.90;;;;;;;7.47;68.70;101253.59;15645190;28;20049;-61
2021/10/12 23:44:46;;;;;;;1999.90;999.90;;;;;;;7.43;69.57;101254.50;15675986;28;20135;-61
2021/10/12 23:52:20;;;;;;;1999.90;999.90;;;;;;;7.46;69.23;101259.44;15663197;28;20077;-61
2021/10/12 23:59:53;;;;;;;1999.90;999.90;;;;;;;7.44;69.28;101264.47;15675704;28;20047;-61
